Time;durP1;ratioP1;P1;durP2;ratioP2;P2;SDS_P1;SDS_P2;PMS_P1;PMS_P2;Temp;Humidity;BMP_temperature;BMP_pressure;BME280_temperature;BME280_humidity;BME280_pressure;Samples;Min_cycle;Max_cycle;Signal;HPM_P1;HPM_P2
2023/12/06 00:02:09;;;;;;;75.68;14.70;;;6.60;99.90;;;;;;4985006;28;20022;-63
2023/12/06 00:04:34;;;;;;;92.55;13.85;;;6.60;99.90;;;;;;4970217;28;20086;-63
2023/12/06 00:07:00;;;;;;;82.13;13.70;;;6.60;99.90;;;;;;4985177;28;20027;-63
2023/12/06 00:09:25;;;;;;;79.75;14.70;;;6.60;99.90;;;;;;4984771;28;20383;-63
2023/12/06 00:11:51;;;;;;;92.45;14.40;;;6.60;99.90;;;;;;4984728;28;20023;-63
2023/12/06 00:14:16;;;;;;;90.38;14.15;;;6.60;99.90;;;;;;4984914;28;20055;-63
2023/12/06 00:16:42;;;;;;;84.95;13.18;;;6.60;99.90;;;;;;4969784;28;20031;-63
2023/12/06 00:19:08;;;;;;;74.53;12.73;;;6.60;99.90;;;;;;4969798;28;20063;-64
2023/12/06 00:21:33;;;;;;;76.18;12.73;;;6.60;99.90;;;;;;4984780;28;20031;-63
2023/12/06 00:23:59;;;;;;;55.33;11.95;;;6.60;99.90;;;;;;4984563;28;20526;-63
2023/12/06 00:26:25;;;;;;;54.08;11.52;;;6.60;99.90;;;;;;4984371;28;20023;-62
2023/12/06 00:28:53;;;;;;;65.38;14.18;;;6.60;99.90;;;;;;4969721;28;20491;-63
2023/12/06 00:31:18;;;;;;;65.53;12.80;;;6.60;99.90;;;;;;4984325;28;20061;-63
2023/12/06 00:33:44;;;;;;;72.78;11.85;;;6.60;99.90;;;;;;4984660;28;20039;-63
2023/12/06 00:36:10;;;;;;;58.38;11.95;;;6.50;99.90;;;;;;4969716;28;20103;-64
2023/12/06 00:38:35;;;;;;;72.80;12.63;;;6.50;99.90;;;;;;4969462;28;20043;-63
2023/12/06 00:41:01;;;;;;;52.17;11.27;;;6.50;99.90;;;;;;4984305;28;20062;-63
2023/12/06 00:43:27;;;;;;;58.20;11.80;;;6.50;99.90;;;;;;4984327;28;20026;-63
2023/12/06 00:45:53;;;;;;;60.70;10.13;;;6.50;99.90;;;;;;4969347;28;20034;-63
2023/12/06 00:48:19;;;;;;;52.28;10.05;;;6.50;99.90;;;;;;4983454;28;20062;-63
2023/12/06 00:50:44;;;;;;;50.72;10.18;;;6.50;99.90;;;;;;4984090;28;20043;-63
2023/12/06 00:53:10;;;;;;;60.40;11.75;;;6.50;99.90;;;;;;4969297;28;20034;-64
2023/12/06 00:55:36;;;;;;;43.17;10.55;;;6.50;99.90;;;;;;4983967;28;20043;-63
2023/12/06 00:58:01;;;;;;;61.35;10.77;;;6.50;99.90;;;;;;4985311;28;20034;-63
2023/12/06 01:00:27;;;;;;;60.30;11.05;;;6.50;99.90;;;;;;4968644;29;20098;-64
2023/12/06 01:02:52;;;;;;;51.92;11.15;;;6.40;99.90;;;;;;4984100;28;20030;-63
2023/12/06 01:05:18;;;;;;;43.63;9.38;;;6.40;99.90;;;;;;4983923;28;20534;-64
2023/12/06 01:07:44;;;;;;;46.35;9.02;;;6.40;99.90;;;;;;4968877;28;20034;-63
2023/12/06 01:10:10;;;;;;;59.92;10.65;;;6.40;99.90;;;;;;4968918;28;20045;-63
2023/12/06 01:12:35;;;;;;;48.67;10.00;;;6.40;99.90;;;;;;4983844;28;20026;-63
2023/12/06 01:15:03;;;;;;;50.00;9.85;;;6.50;99.90;;;;;;4969413;28;20357;-64
2023/12/06 01:17:28;;;;;;;62.20;11.02;;;6.50;99.90;;;;;;4983509;28;20027;-64
2023/12/06 01:19:54;;;;;;;35.20;9.50;;;6.50;99.90;;;;;;4983492;28;20037;-64
2023/12/06 01:22:19;;;;;;;45.28;8.95;;;6.40;99.90;;;;;;4983474;28;20083;-63
2023/12/06 01:24:47;;;;;;;53.38;9.00;;;6.40;99.90;;;;;;4983491;28;20035;-63
2023/12/06 01:27:12;;;;;;;49.40;9.63;;;6.40;99.90;;;;;;4968494;28;20092;-63
2023/12/06 01:29:38;;;;;;;46.78;9.88;;;6.40;99.90;;;;;;4983430;28;20035;-63
2023/12/06 01:32:04;;;;;;;44.42;9.60;;;6.40;99.90;;;;;;4968331;28;20027;-63
2023/12/06 01:34:29;;;;;;;45.45;8.40;;;6.40;99.90;;;;;;4983296;28;20411;-64
2023/12/06 01:36:55;;;;;;;48.45;8.35;;;6.40;99.90;;;;;;4968330;28;20027;-64
2023/12/06 01:39:20;;;;;;;55.20;9.40;;;6.40;99.90;;;;;;4983322;28;20031;-64
2023/12/06 01:41:48;;;;;;;39.42;8.13;;;6.40;99.90;;;;;;4983373;28;20036;-64
2023/12/06 01:44:13;;;;;;;40.35;8.55;;;6.40;99.90;;;;;;4968522;28;20039;-49
2023/12/06 01:46:39;;;;;;;34.22;7.40;;;6.40;99.90;;;;;;4982922;28;20103;-50
2023/12/06 01:49:05;;;;;;;33.05;7.30;;;6.40;99.90;;;;;;4968309;28;20057;-50
2023/12/06 01:51:30;;;;;;;34.50;8.45;;;6.40;99.90;;;;;;4983148;28;20074;-50
2023/12/06 01:53:56;;;;;;;39.03;7.95;;;6.40;99.90;;;;;;4982976;28;20039;-50
2023/12/06 01:56:22;;;;;;;32.33;8.45;;;6.40;99.90;;;;;;4982948;28;20043;-50
2023/12/06 01:58:47;;;;;;;32.17;7.32;;;6.40;99.90;;;;;;4982936;28;20036;-50
2023/12/06 02:01:13;;;;;;;24.83;6.97;;;6.40;99.90;;;;;;4982756;28;20542;-50
2023/12/06 02:03:38;;;;;;;31.95;7.25;;;6.40;99.90;;;;;;4982895;28;20062;-50
2023/12/06 02:06:06;;;;;;;47.70;7.97;;;6.40;99.90;;;;;;4982874;28;20047;-50
2023/12/06 02:08:32;;;;;;;27.73;7.00;;;6.30;99.90;;;;;;4982696;28;20508;-50
2023/12/06 02:10:57;;;;;;;40.47;7.10;;;6.30;99.90;;;;;;4982872;28;20050;-50
2023/12/06 02:13:23;;;;;;;39.22;7.10;;;6.30;99.90;;;;;;4982731;28;20019;-50
2023/12/06 02:15:49;;;;;;;36.42;7.20;;;6.40;99.90;;;;;;4982922;28;20031;-50
2023/12/06 02:18:14;;;;;;;32.25;6.88;;;6.30;99.90;;;;;;4982637;28;20027;-50
2023/12/06 02:20:40;;;;;;;29.50;7.13;;;6.30;99.90;;;;;;4982953;28;20027;-50
2023/12/06 02:23:05;;;;;;;28.92;6.63;;;6.30;99.90;;;;;;4967906;28;20458;-50
2023/12/06 02:25:31;;;;;;;28.35;6.60;;;6.30;99.90;;;;;;4982660;28;20036;-50
2023/12/06 02:27:58;;;;;;;19.88;5.82;;;6.30;99.90;;;;;;4982779;28;20046;-50
2023/12/06 02:30:23;;;;;;;23.80;5.80;;;6.30;99.90;;;;;;4967962;28;20031;-50
2023/12/06 02:32:49;;;;;;;31.65;6.68;;;6.30;99.90;;;;;;4967858;29;20027;-50
2023/12/06 02:35:19;;;;;;;35.40;6.55;;;6.30;99.90;;;;;;4967838;29;20494;-49
2023/12/06 02:37:45;;;;;;;23.90;6.32;;;6.30;99.90;;;;;;4982063;28;20042;-50
2023/12/06 02:40:11;;;;;;;27.60;5.57;;;6.30;99.90;;;;;;4982425;28;20032;-50
2023/12/06 02:42:36;;;;;;;26.02;5.25;;;6.30;99.90;;;;;;4982497;28;20046;-50
2023/12/06 02:45:02;;;;;;;22.70;5.65;;;6.30;99.90;;;;;;4982651;28;20055;-50
2023/12/06 02:47:29;;;;;;;20.48;5.10;;;6.30;99.90;;;;;;4982319;28;20112;-50
2023/12/06 02:49:54;;;;;;;21.65;6.07;;;6.30;99.90;;;;;;4982613;28;20083;-50
2023/12/06 02:52:20;;;;;;;21.63;5.85;;;6.30;99.90;;;;;;4982804;28;20447;-50
2023/12/06 02:54:45;;;;;;;21.65;5.15;;;6.30;99.90;;;;;;4982535;28;20027;-50
2023/12/06 02:57:11;;;;;;;27.17;6.25;;;6.30;99.90;;;;;;4982581;28;20489;-50
2023/12/06 02:59:37;;;;;;;20.17;5.40;;;6.30;99.90;;;;;;4982462;28;20035;-50
2023/12/06 03:02:02;;;;;;;21.00;6.38;;;6.30;99.90;;;;;;4982486;28;20467;-50
2023/12/06 03:04:28;;;;;;;15.88;5.13;;;6.40;99.90;;;;;;4967242;28;20058;-50
2023/12/06 03:06:54;;;;;;;21.35;5.43;;;6.30;99.90;;;;;;4967820;29;20033;-50
2023/12/06 03:09:19;;;;;;;27.33;6.57;;;6.30;99.90;;;;;;4982756;28;20035;-50
2023/12/06 03:11:45;;;;;;;17.75;4.88;;;6.30;99.90;;;;;;4983301;28;20055;-50
2023/12/06 03:14:10;;;;;;;16.10;4.60;;;6.30;99.90;;;;;;4985913;28;20083;-50
2023/12/06 03:16:36;;;;;;;24.13;4.60;;;6.20;99.90;;;;;;4985860;28;20123;-50
2023/12/06 03:19:02;;;;;;;18.52;5.05;;;6.30;99.90;;;;;;4986357;28;20035;-50
2023/12/06 03:21:27;;;;;;;13.52;4.55;;;6.20;99.90;;;;;;4985938;28;20034;-50
2023/12/06 03:23:53;;;;;;;20.95;3.85;;;6.20;99.90;;;;;;4970867;28;20035;-50
2023/12/06 03:26:19;;;;;;;18.17;4.28;;;6.20;99.90;;;;;;4970765;29;20399;-50
2023/12/06 03:28:45;;;;;;;12.52;3.92;;;6.20;99.90;;;;;;4970753;29;20058;-50
2023/12/06 03:31:10;;;;;;;21.33;4.97;;;6.20;99.90;;;;;;4970579;29;20029;-50
2023/12/06 03:33:36;;;;;;;20.73;4.60;;;6.20;99.90;;;;;;4970492;28;20051;-50
2023/12/06 03:36:01;;;;;;;11.48;3.95;;;6.10;99.90;;;;;;4985497;28;20031;-50
2023/12/06 03:38:27;;;;;;;18.75;4.25;;;6.10;99.90;;;;;;4985267;28;20058;-50
2023/12/06 03:40:53;;;;;;;15.50;4.50;;;6.10;99.90;;;;;;4985067;28;20039;-50
2023/12/06 03:43:18;;;;;;;19.33;5.22;;;6.10;99.90;;;;;;4970261;28;20039;-50
2023/12/06 03:45:44;;;;;;;11.32;3.90;;;6.10;99.90;;;;;;4970315;28;20038;-50
2023/12/06 03:48:09;;;;;;;12.13;3.28;;;6.10;99.90;;;;;;4970226;29;20058;-50
2023/12/06 03:50:35;;;;;;;13.77;4.57;;;6.10;99.90;;;;;;4970501;29;20039;-50
2023/12/06 03:53:00;;;;;;;13.55;3.95;;;6.10;99.90;;;;;;4970359;28;20034;-50
2023/12/06 03:55:26;;;;;;;18.48;4.80;;;6.10;99.90;;;;;;4985188;28;20055;-50
2023/12/06 03:57:52;;;;;;;12.50;4.07;;;6.10;99.90;;;;;;4985046;28;20039;-50
2023/12/06 04:00:17;;;;;;;14.23;4.25;;;6.10;99.90;;;;;;4970263;28;20090;-50
2023/12/06 04:02:43;;;;;;;13.43;4.22;;;6.20;99.90;;;;;;4985040;28;20042;-50
2023/12/06 04:05:08;;;;;;;12.48;3.60;;;6.20;99.90;;;;;;4970184;28;20090;-50
2023/12/06 04:07:34;;;;;;;12.63;3.95;;;6.20;99.90;;;;;;4969909;28;20031;-50
2023/12/06 04:10:00;;;;;;;14.57;4.13;;;6.20;99.90;;;;;;4970152;29;20515;-50
2023/12/06 04:12:26;;;;;;;11.85;4.43;;;6.20;99.90;;;;;;4984761;28;20034;-50
2023/12/06 04:14:53;;;;;;;11.90;4.07;;;6.20;99.90;;;;;;4984883;28;20039;-50
2023/12/06 04:17:19;;;;;;;11.02;4.13;;;6.20;99.90;;;;;;4984503;28;20042;-50
2023/12/06 04:19:45;;;;;;;13.95;4.28;;;6.20;99.90;;;;;;4984759;28;20134;-50
2023/12/06 04:22:10;;;;;;;14.15;4.95;;;6.20;99.90;;;;;;4984720;28;20038;-50
2023/12/06 04:24:37;;;;;;;13.07;4.47;;;6.30;99.90;;;;;;4968491;29;20035;-50
2023/12/06 04:27:03;;;;;;;10.70;4.72;;;6.20;99.90;;;;;;4984321;28;20035;-50
2023/12/06 04:29:29;;;;;;;15.60;4.40;;;6.20;99.90;;;;;;4969782;28;20035;-50
2023/12/06 04:31:55;;;;;;;13.70;5.13;;;6.30;99.90;;;;;;4984552;28;20373;-50
2023/12/06 04:34:20;;;;;;;14.70;5.07;;;6.20;99.90;;;;;;4984331;28;20028;-50
2023/12/06 04:36:46;;;;;;;13.60;5.15;;;6.20;99.90;;;;;;4984241;28;20361;-50
2023/12/06 04:39:11;;;;;;;15.63;4.88;;;6.20;99.90;;;;;;4984491;28;20062;-50
2023/12/06 04:41:37;;;;;;;15.55;4.97;;;6.20;99.90;;;;;;4969589;28;20027;-50
2023/12/06 04:44:02;;;;;;;18.13;5.68;;;6.20;99.90;;;;;;4969347;28;20046;-50
2023/12/06 04:46:28;;;;;;;14.38;5.85;;;6.20;99.90;;;;;;4984192;28;20023;-50
2023/12/06 04:48:54;;;;;;;19.00;5.60;;;6.20;99.90;;;;;;4969341;28;20047;-50
2023/12/06 04:51:19;;;;;;;17.50;5.53;;;6.20;99.90;;;;;;4969172;29;20476;-50
2023/12/06 04:53:45;;;;;;;13.25;5.40;;;6.20;99.90;;;;;;4983947;28;20035;-50
2023/12/06 04:56:11;;;;;;;18.10;5.85;;;6.20;99.90;;;;;;4984158;28;20023;-50
2023/12/06 04:58:37;;;;;;;17.58;4.88;;;6.20;99.90;;;;;;4983942;28;20058;-50
2023/12/06 05:01:04;;;;;;;15.60;4.97;;;6.20;99.90;;;;;;4983901;28;20023;-50
2023/12/06 05:03:30;;;;;;;15.52;5.10;;;6.20;99.90;;;;;;4968943;28;20020;-50
2023/12/06 05:05:56;;;;;;;19.35;4.80;;;6.20;99.90;;;;;;4983964;28;20027;-50
2023/12/06 05:08:21;;;;;;;18.73;5.22;;;6.10;99.90;;;;;;4983696;28;20034;-50
2023/12/06 05:10:47;;;;;;;14.85;5.13;;;6.10;99.90;;;;;;4983989;28;20039;-50
2023/12/06 05:13:13;;;;;;;10.85;3.97;;;6.10;99.90;;;;;;4983868;28;20019;-51
2023/12/06 05:15:38;;;;;;;10.40;4.18;;;6.10;99.90;;;;;;4968974;28;20023;-50
2023/12/06 05:18:04;;;;;;;10.80;4.45;;;6.10;99.90;;;;;;4967403;29;20038;-50
2023/12/06 05:20:29;;;;;;;14.70;4.82;;;6.00;99.90;;;;;;4983909;28;20043;-50
2023/12/06 05:22:55;;;;;;;9.30;3.90;;;6.10;99.90;;;;;;4983671;28;20023;-50
2023/12/06 05:25:21;;;;;;;17.95;4.03;;;6.10;99.90;;;;;;4983594;28;20078;-50
2023/12/06 05:27:46;;;;;;;12.88;4.18;;;6.10;99.90;;;;;;4983421;28;20035;-50
2023/12/06 05:30:12;;;;;;;10.82;4.22;;;6.10;99.90;;;;;;4968696;28;20031;-50
2023/12/06 05:32:38;;;;;;;9.48;3.75;;;6.10;99.90;;;;;;4960823;29;20031;-50
2023/12/06 05:35:05;;;;;;;14.13;3.95;;;6.00;99.90;;;;;;4957692;29;20031;-50
2023/12/06 05:37:30;;;;;;;11.77;3.83;;;6.10;99.90;;;;;;4967976;28;20043;-50
2023/12/06 05:39:56;;;;;;;9.65;4.00;;;6.00;99.90;;;;;;4967023;29;20082;-50
2023/12/06 05:42:21;;;;;;;11.80;3.67;;;6.00;99.90;;;;;;4983286;28;20034;-50
2023/12/06 05:44:47;;;;;;;13.68;4.03;;;6.10;99.90;;;;;;4983517;28;20047;-50
2023/12/06 05:47:13;;;;;;;12.93;3.88;;;6.10;99.90;;;;;;4968405;28;20032;-50
2023/12/06 05:49:38;;;;;;;11.27;3.38;;;6.10;99.90;;;;;;4968353;29;20077;-50
2023/12/06 05:52:13;;;;;;;10.00;3.40;;;6.10;99.90;;;;;;4983046;28;20035;-50
2023/12/06 05:54:39;;;;;;;13.88;3.78;;;6.00;99.90;;;;;;4966893;29;20144;-50
2023/12/06 05:57:06;;;;;;;7.07;3.22;;;6.00;99.90;;;;;;4968189;28;20114;-50
2023/12/06 05:59:31;;;;;;;8.77;3.35;;;6.00;99.90;;;;;;4983507;28;20046;-50
2023/12/06 06:01:57;;;;;;;12.20;3.80;;;6.00;99.90;;;;;;4983440;28;20051;-50
2023/12/06 06:04:23;;;;;;;8.57;3.30;;;6.00;99.90;;;;;;4968229;28;20043;-49
2023/12/06 06:06:48;;;;;;;9.48;3.10;;;6.00;99.90;;;;;;4982927;28;20035;-50
2023/12/06 06:09:14;;;;;;;9.38;3.70;;;6.00;99.90;;;;;;4966836;29;20475;-50
2023/12/06 06:11:39;;;;;;;7.22;2.90;;;6.00;99.90;;;;;;4984094;28;20030;-48
2023/12/06 06:14:05;;;;;;;9.88;3.63;;;6.00;99.90;;;;;;4982733;28;20028;-50
2023/12/06 06:16:31;;;;;;;11.05;4.00;;;6.00;99.90;;;;;;4982641;28;20027;-50
2023/12/06 06:18:57;;;;;;;9.77;3.20;;;6.00;99.90;;;;;;4967890;28;20062;-50
2023/12/06 06:21:22;;;;;;;5.70;2.67;;;6.00;99.90;;;;;;4982679;28;20078;-50
2023/12/06 06:23:48;;;;;;;9.70;3.00;;;6.00;99.90;;;;;;4982722;28;20046;-50
2023/12/06 06:26:13;;;;;;;9.82;3.40;;;6.00;99.90;;;;;;4967709;28;20035;-50
2023/12/06 06:28:39;;;;;;;10.90;3.08;;;6.00;99.90;;;;;;4967706;29;20027;-50
2023/12/06 06:31:05;;;;;;;5.80;3.08;;;6.00;99.90;;;;;;4982627;28;20058;-50
2023/12/06 06:33:30;;;;;;;9.13;3.08;;;6.00;99.90;;;;;;4966234;29;20034;-50
2023/12/06 06:35:56;;;;;;;7.63;3.08;;;6.00;99.90;;;;;;4967796;28;20364;-50
2023/12/06 06:38:23;;;;;;;8.75;3.00;;;6.00;99.90;;;;;;4967444;28;20376;-50
2023/12/06 06:40:49;;;;;;;6.88;2.85;;;6.00;99.90;;;;;;4967622;29;20035;-49
2023/12/06 06:43:15;;;;;;;9.27;3.08;;;6.00;99.90;;;;;;4982320;28;20063;-50
2023/12/06 06:45:42;;;;;;;7.57;2.95;;;6.00;99.90;;;;;;4982612;28;20027;-50
2023/12/06 06:48:12;;;;;;;7.53;2.83;;;6.00;99.90;;;;;;4970664;28;20027;-50
2023/12/06 06:50:37;;;;;;;7.88;3.03;;;6.00;99.90;;;;;;4985821;28;20058;-50
2023/12/06 06:53:03;;;;;;;6.60;2.90;;;6.00;99.90;;;;;;4985529;28;20052;-50
2023/12/06 06:55:28;;;;;;;9.57;2.97;;;6.00;99.90;;;;;;4952330;29;20039;-50
2023/12/06 06:57:54;;;;;;;6.25;2.60;;;6.00;99.90;;;;;;4964308;28;20143;-50
2023/12/06 07:00:20;;;;;;;7.18;2.97;;;6.00;99.90;;;;;;4971038;28;20035;-50
2023/12/06 07:02:47;;;;;;;7.13;2.70;;;6.00;99.90;;;;;;4968943;28;20091;-50
2023/12/06 07:05:13;;;;;;;8.23;3.00;;;6.00;99.90;;;;;;4982081;28;20046;-50
2023/12/06 07:07:41;;;;;;;6.72;2.95;;;6.00;99.90;;;;;;4985865;28;20082;-50
2023/12/06 07:10:07;;;;;;;7.50;2.55;;;6.00;99.90;;;;;;4968321;28;20043;-50
2023/12/06 07:12:32;;;;;;;6.95;2.55;;;6.00;99.90;;;;;;4985420;28;20034;-50
2023/12/06 07:14:59;;;;;;;5.75;2.65;;;6.00;99.90;;;;;;4970495;28;20027;-50
2023/12/06 07:17:25;;;;;;;7.55;2.60;;;6.00;99.90;;;;;;4978495;28;20024;-50
2023/12/06 07:19:51;;;;;;;9.43;2.92;;;6.00;99.90;;;;;;4943859;29;20035;-50
2023/12/06 07:22:16;;;;;;;8.68;2.45;;;6.00;99.90;;;;;;4951163;29;20031;-49
2023/12/06 07:24:42;;;;;;;10.25;2.55;;;6.00;99.90;;;;;;4966171;28;20514;-50
2023/12/06 07:27:09;;;;;;;6.95;2.90;;;6.00;99.90;;;;;;4979415;28;20115;-50
2023/12/06 07:29:35;;;;;;;8.57;3.13;;;6.00;99.90;;;;;;4978945;28;20065;-50
2023/12/06 07:32:01;;;;;;;11.07;4.20;;;6.00;99.90;;;;;;4967276;28;20042;-49
2023/12/06 07:34:27;;;;;;;8.15;2.83;;;6.00;99.90;;;;;;4976782;28;20023;-50
2023/12/06 07:36:53;;;;;;;8.45;3.00;;;6.00;99.90;;;;;;4982131;28;20117;-51
2023/12/06 07:39:19;;;;;;;105.82;9.90;;;6.00;99.90;;;;;;4983955;28;20039;-50
2023/12/06 07:41:45;;;;;;;82.80;8.77;;;6.00;99.90;;;;;;4979767;28;20074;-50
2023/12/06 07:44:11;;;;;;;33.72;5.22;;;6.00;99.90;;;;;;4980289;28;20040;-50
2023/12/06 07:46:37;;;;;;;40.00;5.47;;;6.00;99.90;;;;;;4975728;28;20035;-50
2023/12/06 07:49:03;;;;;;;57.20;6.95;;;6.00;99.90;;;;;;4963768;29;20099;-50
2023/12/06 07:51:28;;;;;;;28.13;4.30;;;6.00;99.90;;;;;;4958655;28;20047;-50
2023/12/06 07:53:56;;;;;;;23.30;3.60;;;6.00;99.90;;;;;;4950893;28;20042;-50
2023/12/06 07:56:21;;;;;;;14.07;2.78;;;6.00;99.90;;;;;;4957438;29;20087;-50
2023/12/06 07:58:47;;;;;;;14.80;2.92;;;6.00;99.90;;;;;;4958355;29;20031;-50
2023/12/06 08:01:12;;;;;;;8.65;2.70;;;6.00;99.90;;;;;;4983944;28;20023;-50
2023/12/06 08:03:39;;;;;;;15.25;3.53;;;6.10;99.90;;;;;;4977363;28;20357;-51
2023/12/06 08:06:06;;;;;;;11.43;3.20;;;6.00;99.90;;;;;;4968144;28;20027;-50
2023/12/06 08:08:33;;;;;;;12.80;2.92;;;6.00;99.90;;;;;;4968128;28;20047;-50
2023/12/06 08:11:00;;;;;;;20.63;3.05;;;6.10;99.90;;;;;;4966381;28;20038;-50
2023/12/06 08:13:27;;;;;;;10.20;2.65;;;6.10;99.90;;;;;;4965527;28;20127;-50
2023/12/06 08:15:52;;;;;;;12.10;3.03;;;6.10;99.90;;;;;;4947821;29;20024;-50
2023/12/06 08:18:18;;;;;;;13.15;3.03;;;6.10;99.90;;;;;;4967320;29;20034;-50
2023/12/06 08:20:43;;;;;;;11.32;3.72;;;6.10;99.90;;;;;;4982910;28;20030;-50
2023/12/06 08:23:11;;;;;;;15.00;3.22;;;6.10;99.90;;;;;;4975560;28;20055;-50
2023/12/06 08:25:37;;;;;;;12.85;3.20;;;6.10;99.90;;;;;;4970721;28;20036;-50
2023/12/06 08:28:02;;;;;;;8.45;3.38;;;6.10;99.90;;;;;;4981634;28;20051;-50
2023/12/06 08:30:28;;;;;;;15.57;2.60;;;6.10;99.90;;;;;;4979512;28;20024;-50
2023/12/06 08:32:54;;;;;;;13.63;2.47;;;6.10;99.90;;;;;;4949131;29;20026;-50
2023/12/06 08:35:19;;;;;;;24.98;3.40;;;6.10;99.90;;;;;;4964829;29;20063;-50
2023/12/06 08:37:45;;;;;;;21.80;2.70;;;6.10;99.90;;;;;;4964494;29;20137;-50
2023/12/06 08:40:12;;;;;;;16.85;3.08;;;6.10;99.90;;;;;;4964426;29;20039;-51
2023/12/06 08:42:38;;;;;;;17.17;3.17;;;6.20;99.90;;;;;;4955505;29;20034;-50
2023/12/06 08:45:04;;;;;;;13.90;3.47;;;6.20;99.90;;;;;;4984012;28;20043;-50
2023/12/06 08:47:30;;;;;;;28.77;3.47;;;6.20;99.90;;;;;;4983876;28;20031;-50
2023/12/06 08:49:55;;;;;;;27.73;3.83;;;6.20;99.90;;;;;;4983729;28;20046;-50
2023/12/06 08:52:21;;;;;;;20.52;4.07;;;6.20;99.90;;;;;;4984011;28;20146;-50
2023/12/06 08:54:46;;;;;;;15.82;3.35;;;6.30;99.90;;;;;;4983007;28;20027;-50
2023/12/06 08:57:13;;;;;;;17.67;3.25;;;6.30;99.90;;;;;;4982114;28;20037;-50
2023/12/06 08:59:39;;;;;;;31.20;4.35;;;6.30;99.90;;;;;;4967485;28;20070;-50
2023/12/06 09:02:05;;;;;;;23.30;4.45;;;6.30;99.90;;;;;;4983681;28;20458;-50
2023/12/06 09:04:30;;;;;;;32.60;3.53;;;6.30;99.90;;;;;;4939019;29;20044;-50
2023/12/06 09:06:56;;;;;;;22.10;3.47;;;6.30;99.90;;;;;;4975890;28;20042;-50
2023/12/06 09:09:22;;;;;;;29.50;4.10;;;6.30;99.90;;;;;;4963505;28;20079;-50
2023/12/06 09:11:47;;;;;;;34.83;5.13;;;6.40;99.90;;;;;;4971525;28;20023;-50
2023/12/06 09:14:13;;;;;;;45.47;5.40;;;6.40;99.90;;;;;;4981909;28;20065;-50
2023/12/06 09:16:40;;;;;;;38.25;5.15;;;6.40;99.90;;;;;;4993741;28;20059;-50
2023/12/06 09:19:05;;;;;;;38.20;4.13;;;6.40;99.90;;;;;;4959601;28;20038;-50
2023/12/06 09:21:45;;;;;;;36.05;4.55;;;6.40;99.90;;;;;;4945731;28;20031;-50
2023/12/06 09:24:11;;;;;;;51.92;5.75;;;6.40;99.90;;;;;;4971143;28;20035;-50
2023/12/06 09:26:37;;;;;;;46.45;5.55;;;6.50;99.90;;;;;;4982781;28;20407;-50
2023/12/06 09:29:05;;;;;;;45.30;5.63;;;6.50;99.90;;;;;;4982640;28;20058;-50
2023/12/06 09:31:34;;;;;;;41.95;5.22;;;6.50;99.90;;;;;;4966244;28;20032;-50
2023/12/06 09:34:00;;;;;;;111.80;11.10;;;6.50;99.90;;;;;;4974286;28;20114;-50
2023/12/06 09:36:27;;;;;;;52.17;5.25;;;6.50;99.90;;;;;;4980404;28;20419;-50
2023/12/06 09:38:53;;;;;;;28.92;4.32;;;6.60;99.90;;;;;;4978065;28;20061;-50
2023/12/06 09:41:20;;;;;;;31.67;4.75;;;6.50;99.90;;;;;;4964941;29;20027;-50
2023/12/06 09:43:46;;;;;;;23.15;4.15;;;6.60;99.90;;;;;;4977352;28;20034;-50
2023/12/06 09:46:13;;;;;;;16.38;2.90;;;6.60;99.90;;;;;;4965516;28;20436;-50
2023/12/06 09:48:38;;;;;;;30.88;4.38;;;6.60;99.90;;;;;;4959592;28;20463;-50
2023/12/06 09:51:04;;;;;;;26.45;4.35;;;6.60;99.90;;;;;;4968101;28;20055;-50
2023/12/06 09:53:30;;;;;;;41.80;5.05;;;6.60;99.90;;;;;;4957705;29;20020;-50
2023/12/06 09:55:55;;;;;;;27.20;4.72;;;6.60;99.90;;;;;;4964673;28;20386;-51
2023/12/06 09:58:22;;;;;;;31.95;4.03;;;6.60;99.90;;;;;;4962739;29;20048;-50
2023/12/06 10:00:47;;;;;;;39.47;4.88;;;6.60;99.90;;;;;;4962371;29;20036;-50
2023/12/06 10:03:15;;;;;;;31.52;5.07;;;6.60;99.90;;;;;;4981406;28;20035;-50
2023/12/06 10:05:41;;;;;;;48.55;5.68;;;6.70;99.90;;;;;;4965761;29;20037;-50
2023/12/06 10:08:07;;;;;;;42.50;5.40;;;6.70;99.90;;;;;;4965837;29;20066;-50
2023/12/06 10:10:32;;;;;;;46.20;4.57;;;6.70;99.90;;;;;;4934513;29;20032;-50
2023/12/06 10:13:00;;;;;;;30.67;4.35;;;6.70;99.90;;;;;;4979700;28;20118;-51
2023/12/06 10:15:34;;;;;;;35.63;4.82;;;6.80;99.90;;;;;;4982543;28;20098;-50
2023/12/06 10:18:00;;;;;;;30.88;4.38;;;6.80;99.90;;;;;;4981029;28;20099;-50
2023/12/06 10:20:26;;;;;;;55.97;5.82;;;6.80;99.90;;;;;;4981306;28;20032;-51
2023/12/06 10:22:51;;;;;;;295.95;27.90;;;6.80;99.90;;;;;;4957067;28;20031;-50
2023/12/06 10:25:17;;;;;;;109.45;12.73;;;6.80;99.90;;;;;;4982107;28;20039;-50
2023/12/06 10:27:45;;;;;;;72.03;9.43;;;6.80;99.90;;;;;;4966074;28;20035;-50
2023/12/06 10:30:11;;;;;;;61.58;6.30;;;6.80;99.90;;;;;;4957154;28;20028;-50
2023/12/06 10:32:36;;;;;;;48.05;6.03;;;6.80;99.90;;;;;;4982799;28;20127;-51
2023/12/06 10:35:05;;;;;;;42.42;5.05;;;6.90;99.90;;;;;;4971630;28;20488;-50
2023/12/06 10:37:31;;;;;;;70.68;7.25;;;6.90;99.90;;;;;;4963048;29;20036;-48
2023/12/06 10:40:09;;;;;;;74.45;7.03;;;6.90;99.90;;;;;;4969444;28;20031;-50
2023/12/06 10:42:36;;;;;;;43.58;6.43;;;6.90;99.90;;;;;;4977169;28;20111;-50
2023/12/06 10:45:03;;;;;;;50.47;6.05;;;6.90;99.90;;;;;;4983036;28;20067;-50
2023/12/06 10:47:28;;;;;;;51.03;6.25;;;7.00;99.90;;;;;;4982580;28;20051;-50
2023/12/06 10:49:54;;;;;;;48.30;6.38;;;7.00;99.90;;;;;;4982448;28;20042;-50
2023/12/06 10:52:23;;;;;;;55.33;6.13;;;7.00;99.90;;;;;;4979723;28;20456;-50
2023/12/06 10:54:48;;;;;;;38.63;5.32;;;7.00;99.90;;;;;;4978769;28;20496;-50
2023/12/06 10:57:14;;;;;;;49.00;5.60;;;7.00;99.90;;;;;;4981465;28;20027;-50
2023/12/06 10:59:41;;;;;;;35.05;5.20;;;7.00;99.80;;;;;;4980047;28;20039;-50
2023/12/06 11:02:07;;;;;;;48.53;6.82;;;7.00;99.80;;;;;;4977338;28;20043;-50
2023/12/06 11:04:35;;;;;;;34.33;5.18;;;7.00;99.90;;;;;;4964888;28;20082;-50
2023/12/06 11:07:09;;;;;;;36.80;4.57;;;7.00;99.90;;;;;;4985110;28;20027;-50
2023/12/06 11:09:56;;;;;;;37.10;5.43;;;7.00;99.90;;;;;;4959180;28;20098;-50
2023/12/06 11:12:32;;;;;;;44.72;6.82;;;7.00;99.90;;;;;;4976996;28;20448;-50
2023/12/06 11:15:19;;;;;;;63.88;7.45;;;7.00;99.90;;;;;;4968620;28;20038;-49
2023/12/06 11:17:55;;;;;;;50.13;6.95;;;7.00;99.90;;;;;;4964988;28;20114;-50
2023/12/06 11:20:21;;;;;;;40.97;6.10;;;7.00;99.90;;;;;;4951478;29;20036;-49
2023/12/06 11:22:47;;;;;;;57.63;7.22;;;7.00;99.90;;;;;;4963422;29;20024;-50
2023/12/06 11:25:13;;;;;;;43.75;6.38;;;7.00;99.90;;;;;;4978437;28;20034;-49
2023/12/06 11:27:40;;;;;;;54.17;9.13;;;7.00;99.90;;;;;;4961513;28;20024;-49
2023/12/06 11:30:24;;;;;;;99.43;9.90;;;7.10;99.90;;;;;;4974506;28;20039;-50
2023/12/06 11:32:57;;;;;;;62.45;6.65;;;7.00;99.90;;;;;;4969216;28;20031;-50
2023/12/06 11:35:23;;;;;;;57.60;7.10;;;7.10;99.90;;;;;;4984430;28;20023;-49
2023/12/06 11:37:53;;;;;;;69.80;6.57;;;7.10;99.90;;;;;;4961037;28;20519;-50
2023/12/06 11:40:21;;;;;;;77.43;7.18;;;7.10;99.90;;;;;;4990033;28;20042;-61
2023/12/06 11:43:02;;;;;;;51.88;8.93;;;7.10;99.90;;;;;;4996042;28;20039;-62
2023/12/06 11:45:32;;;;;;;77.70;8.70;;;7.10;99.90;;;;;;4984148;28;20031;-62
2023/12/06 11:48:07;;;;;;;133.70;11.45;;;7.10;99.90;;;;;;4983872;28;20031;-61
2023/12/06 11:50:46;;;;;;;146.40;14.13;;;7.10;99.90;;;;;;4958122;28;20058;-62
2023/12/06 11:53:12;;;;;;;158.10;15.05;;;7.10;99.90;;;;;;4992984;28;20027;-61
2023/12/06 11:55:38;;;;;;;79.45;9.98;;;7.20;99.90;;;;;;4961901;28;20056;-61
2023/12/06 11:58:11;;;;;;;102.80;12.43;;;7.20;99.90;;;;;;4961956;28;20035;-61
2023/12/06 12:00:43;;;;;;;100.85;12.48;;;7.20;99.90;;;;;;4984347;28;20444;-61
2023/12/06 12:03:12;;;;;;;97.13;11.27;;;7.20;99.90;;;;;;4968536;28;20086;-61
2023/12/06 12:05:38;;;;;;;71.35;9.55;;;7.20;99.90;;;;;;4984463;28;20392;-61
2023/12/06 12:08:04;;;;;;;83.63;9.18;;;7.20;99.90;;;;;;4961729;28;20051;-60
2023/12/06 12:10:30;;;;;;;69.13;8.52;;;7.20;99.90;;;;;;4979568;28;20031;-61
2023/12/06 12:12:56;;;;;;;96.93;9.63;;;7.20;99.90;;;;;;4961895;28;20038;-60
2023/12/06 12:15:27;;;;;;;83.20;9.00;;;7.20;99.90;;;;;;4970553;28;20031;-60
2023/12/06 12:17:53;;;;;;;72.65;9.05;;;7.30;99.90;;;;;;4982364;28;20094;-60
2023/12/06 12:20:19;;;;;;;50.08;9.07;;;7.30;99.90;;;;;;4995023;28;20027;-60
2023/12/06 12:22:48;;;;;;;122.50;12.27;;;7.30;99.90;;;;;;4982690;28;20066;-59
2023/12/06 12:25:15;;;;;;;111.43;9.15;;;7.30;99.90;;;;;;4972423;28;20039;-60
2023/12/06 12:27:43;;;;;;;79.07;8.48;;;7.30;99.90;;;;;;4974383;28;20042;-59
2023/12/06 12:30:09;;;;;;;79.53;9.80;;;7.30;99.90;;;;;;4965642;28;20031;-59
2023/12/06 12:32:37;;;;;;;65.38;7.47;;;7.30;99.90;;;;;;4981516;28;20114;-59
2023/12/06 12:35:03;;;;;;;59.88;7.25;;;7.30;99.80;;;;;;4961903;28;20070;-59
2023/12/06 12:37:29;;;;;;;57.50;8.20;;;7.30;99.80;;;;;;4982353;28;20051;-59
2023/12/06 12:39:54;;;;;;;66.50;8.35;;;7.30;99.80;;;;;;4982823;28;20102;-59
2023/12/06 12:42:20;;;;;;;73.38;8.98;;;7.30;99.90;;;;;;4981257;28;20495;-59